Airfield :
LOGIN :

Register | Disclaimer

   EN    FR    IT 

 










Legend :    VFR   Marginal VFR   IFR   Intensive IFR   Very Intensive IFR
Visi :
Ceiling :
>= 8 km
>= 3000ft
5 to 8 km
1000 to 3000 ft
1500m to 5 km
500 to 1000 ft
800 to 1500m
200 to 500 ft
< 800m
< 200 ft
Symbols :   Thunderstorms  Fog  Heavy snow  Heavy precipitations  Wind > 20 kt
SIGMETs :     Misc.  Thunderstorms  Icing  Turbulence  Mountain Waves  Volcanic Ashes







- Airport Elevation : 978 ft
- IATA code : LNZ


LOWL - Linz

CURRENT METAR :
  • 251350Z 30008KT 250V010 9999 FEW045 SCT070 18/06 Q1021 NOSIG

EXPIRED METARs :
  • 251320Z 31005KT 260V030 9999 FEW045 BKN070 18/06 Q1022 NOSIG
  • 251250Z 31008KT 9999 FEW045 BKN065 17/07 Q1022 NOSIG
  • 251220Z 32009KT 9999 FEW045 BKN060 17/06 Q1022 NOSIG
  • 251150Z 30007KT 270V340 9999 SCT040 SCT060 17/07 Q1022 NOSIG
  • 251120Z 24009KT 9999 SCT040 BKN060 18/08 Q1022 NOSIG

TAF TAF LOWL
Valid from the 25 at 12:00 until the 26 at 12:00 UTC


251115Z 2512/2612 27004KT 9999 SCT070 TX20/2612Z TN08/2603Z
TEMPO 2512/2517 29010KT SCT040 BKN060
No reported NOTAMs for that airfield.



MET'MAP, your aeronautical weather chart ! - Copyright ORBIFLY December 2007 - Disclaimer

ORBIFLY MET'MAP TEAM :

Programming & Development : Alexandra Zaïnal
Concept & Development : Baudouin d'Aumeries
Co-Development & Prog : Marc-Olivier Méhu
Technical & hardware support : Manuel Goepfert

Contact : metmap@orbifly.com




SOURCES & CREDITS :

   NOAA